메인 페이지
METAR-TAF:

METAR-TAF

공항 :

Tinker Air Force Base

오클라호마시티 / Tinker, 오클라호마, 미국

위도: 35-25N, 경도: 097-23W, 고도: 394m

현재 날씨관측

예보는 31분 전, 16:18시(UTC)에 발표되었습니다.
14kt
온도 9°C
습도 100%
기압 1011 hPa
시정: 1.8km
고도 100ft 상공 구름 많음
박무

METAR: KTIK 191618Z AUTO 18014KT 1 1/8SM R18/6000FT BR BKN001 09/09 A2984 RMK AO2 SLP114

시각: 10:49 (16:49 UTC)

예보

예보 대상 시간: 19일 10시부터 20일 16시까지 (UTC)
12kt
시정: 0800m
고도 100ft 상공
안개
일시적
19일 15시부터 19일 16시까지 (UTC)
고도 300ft 상공 흐림
전환 중
19일 15시부터 19일 16시까지 (UTC)
12kt, 순간 최대 풍속 17kt
시정: 0800m
고도 300ft 상공 흐림
안개
전환 중
19일 16시부터 19일 17시까지 (UTC)
12kt, 순간 최대 풍속 17kt
시정: 1200m
고도 800ft 상공 흐림
박무
전환 중
19일 17시부터 19일 18시까지 (UTC)
12kt, 순간 최대 풍속 17kt
시정: 3200m
고도 1200ft 상공 흐림
박무
전환 중
19일 22시부터 19일 23시까지 (UTC)
북북서9kt
시정 10km 이상
고도 1000ft 상공 구름 보통
고도 2000ft 상공 구름 많음
전환 중
20일 11시부터 20일 12시까지 (UTC)
북북서15kt
시정 10km 이상
맑음

TAF: KTIK 1910/2016 17012KT 0800 FG VV001 QNH2980INS TEMPO 1915/1916 OVC003 BECMG 1915/1916 19012G17KT 0800 FG OVC003 QNH2978INS BECMG 1916/1917 19012G17KT 1200 BR OVC008 QNH2978INS BECMG 1917/1918 19012G17KT 3200 BR OVC012 QNH2974INS BECMG 1922/1923 33009KT 9999 NSW SCT010 BKN020 QNH2976INS BECMG 2011/2012 33015KT 9999 SKC 510053 QNH2995INS TX12/1920Z TN06/1910Z

4,000개 이상의 공항 관측 자료 및 예보 (METAR 및 TAF 보고).

지도상에서 검색 가능한 기상관측소가 노란 점과 빨간 점으로 표시되어 있습니다.

기상관측소 명을 보려면 표시 위로 마우스를 이동하세요.

날씨 관측과 예보를 보려면 클릭하세요.

지도 변경 : 확대하려면 엑스 표시가 있는 녹색 버튼, 축소하려면 빼기 표시가 있는 녹색 버튼, 다음 페이지의 지도를 보려면 녹색 화살표를 클릭하세요.


METAR-TAF: